sensor_id;sensor_type;location;lat;lon;timestamp;temperature;humidity
32322;DHT22;61553;48.994;8.940;2023-03-23T00:00:37;14.00;94.80
32322;DHT22;61553;48.994;8.940;2023-03-23T00:03:04;14.00;94.60
32322;DHT22;61553;48.994;8.940;2023-03-23T00:05:29;14.10;94.20
32322;DHT22;61553;48.994;8.940;2023-03-23T00:07:55;14.10;93.70
32322;DHT22;61553;48.994;8.940;2023-03-23T00:10:21;14.20;93.50
32322;DHT22;61553;48.994;8.940;2023-03-23T00:12:47;14.20;93.50
32322;DHT22;61553;48.994;8.940;2023-03-23T00:15:15;14.10;93.60
32322;DHT22;61553;48.994;8.940;2023-03-23T00:17:42;14.10;93.60
32322;DHT22;61553;48.994;8.940;2023-03-23T00:20:10;14.10;93.60
32322;DHT22;61553;48.994;8.940;2023-03-23T00:22:38;14.10;93.40
32322;DHT22;61553;48.994;8.940;2023-03-23T00:25:05;14.10;93.40
32322;DHT22;61553;48.994;8.940;2023-03-23T00:27:31;14.10;93.30
32322;DHT22;61553;48.994;8.940;2023-03-23T00:29:56;14.10;93.30
32322;DHT22;61553;48.994;8.940;2023-03-23T00:32:23;14.00;93.10
32322;DHT22;61553;48.994;8.940;2023-03-23T00:34:55;14.00;93.00
32322;DHT22;61553;48.994;8.940;2023-03-23T00:37:21;14.00;93.10
32322;DHT22;61553;48.994;8.940;2023-03-23T00:39:47;14.20;93.30
32322;DHT22;61553;48.994;8.940;2023-03-23T00:42:14;14.10;93.20
32322;DHT22;61553;48.994;8.940;2023-03-23T00:44:40;14.00;93.40
32322;DHT22;61553;48.994;8.940;2023-03-23T00:47:06;14.00;93.40
32322;DHT22;61553;48.994;8.940;2023-03-23T00:49:34;14.00;93.30
32322;DHT22;61553;48.994;8.940;2023-03-23T00:52:03;14.00;93.50
32322;DHT22;61553;48.994;8.940;2023-03-23T00:54:29;14.00;93.70
32322;DHT22;61553;48.994;8.940;2023-03-23T00:56:55;14.00;93.50
32322;DHT22;61553;48.994;8.940;2023-03-23T00:59:21;14.00;93.60
32322;DHT22;61553;48.994;8.940;2023-03-23T01:01:47;14.00;93.30
32322;DHT22;61553;48.994;8.940;2023-03-23T01:04:14;14.00;93.40
32322;DHT22;61553;48.994;8.940;2023-03-23T01:06:42;14.00;93.50
32322;DHT22;61553;48.994;8.940;2023-03-23T01:09:10;14.00;93.50
32322;DHT22;61553;48.994;8.940;2023-03-23T01:11:37;14.00;93.60
32322;DHT22;61553;48.994;8.940;2023-03-23T01:14:04;14.10;93.70
32322;DHT22;61553;48.994;8.940;2023-03-23T01:16:30;14.10;93.70
32322;DHT22;61553;48.994;8.940;2023-03-23T01:18:56;14.10;93.60
32322;DHT22;61553;48.994;8.940;2023-03-23T01:21:21;14.10;93.80
32322;DHT22;61553;48.994;8.940;2023-03-23T01:23:48;14.10;93.80
32322;DHT22;61553;48.994;8.940;2023-03-23T01:26:20;14.10;94.00
32322;DHT22;61553;48.994;8.940;2023-03-23T01:28:46;14.00;94.10
32322;DHT22;61553;48.994;8.940;2023-03-23T01:31:16;13.90;94.40
32322;DHT22;61553;48.994;8.940;2023-03-23T01:33:42;13.80;94.70
32322;DHT22;61553;48.994;8.940;2023-03-23T01:36:12;13.80;94.90
32322;DHT22;61553;48.994;8.940;2023-03-23T01:38:41;13.80;95.00
32322;DHT22;61553;48.994;8.940;2023-03-23T01:41:07;13.70;95.20
32322;DHT22;61553;48.994;8.940;2023-03-23T01:43:33;13.70;95.20
32322;DHT22;61553;48.994;8.940;2023-03-23T01:45:59;13.80;95.20
32322;DHT22;61553;48.994;8.940;2023-03-23T01:48:26;13.70;95.30
32322;DHT22;61553;48.994;8.940;2023-03-23T01:51:06;13.60;95.50
32322;DHT22;61553;48.994;8.940;2023-03-23T01:53:41;13.60;95.60
32322;DHT22;61553;48.994;8.940;2023-03-23T01:56:09;13.60;95.70
32322;DHT22;61553;48.994;8.940;2023-03-23T01:58:37;13.70;95.80
32322;DHT22;61553;48.994;8.940;2023-03-23T02:01:09;13.60;95.80
32322;DHT22;61553;48.994;8.940;2023-03-23T02:03:44;13.60;96.10
32322;DHT22;61553;48.994;8.940;2023-03-23T02:06:11;13.50;96.00
32322;DHT22;61553;48.994;8.940;2023-03-23T02:08:38;13.50;96.00
32322;DHT22;61553;48.994;8.940;2023-03-23T02:11:13;13.50;96.10
32322;DHT22;61553;48.994;8.940;2023-03-23T02:13:39;13.50;96.20
32322;DHT22;61553;48.994;8.940;2023-03-23T02:33:33;13.50;96.10
32322;DHT22;61553;48.994;8.940;2023-03-23T02:35:56;13.60;96.00
32322;DHT22;61553;48.994;8.940;2023-03-23T02:41:26;13.60;95.90
32322;DHT22;61553;48.994;8.940;2023-03-23T02:43:53;13.60;96.00
32322;DHT22;61553;48.994;8.940;2023-03-23T02:46:21;13.70;95.90
32322;DHT22;61553;48.994;8.940;2023-03-23T02:48:49;13.70;95.80
32322;DHT22;61553;48.994;8.940;2023-03-23T02:51:18;13.70;95.80
32322;DHT22;61553;48.994;8.940;2023-03-23T02:53:45;13.70;95.70
32322;DHT22;61553;48.994;8.940;2023-03-23T02:56:13;13.70;95.90
32322;DHT22;61553;48.994;8.940;2023-03-23T02:58:39;13.70;95.70
32322;DHT22;61553;48.994;8.940;2023-03-23T03:04:03;13.70;95.80
32322;DHT22;61553;48.994;8.940;2023-03-23T03:09:16;13.70;96.00
32322;DHT22;61553;48.994;8.940;2023-03-23T03:11:47;13.60;96.10
32322;DHT22;61553;48.994;8.940;2023-03-23T03:14:20;13.50;96.30
32322;DHT22;61553;48.994;8.940;2023-03-23T03:17:14;13.50;96.30
32322;DHT22;61553;48.994;8.940;2023-03-23T03:19:47;13.50;96.30
32322;DHT22;61553;48.994;8.940;2023-03-23T03:22:14;13.50;96.60
32322;DHT22;61553;48.994;8.940;2023-03-23T03:24:41;13.50;96.50
32322;DHT22;61553;48.994;8.940;2023-03-23T03:27:13;13.40;96.70
32322;DHT22;61553;48.994;8.940;2023-03-23T03:29:44;13.40;96.60
32322;DHT22;61553;48.994;8.940;2023-03-23T03:32:17;13.40;96.50
32322;DHT22;61553;48.994;8.940;2023-03-23T03:34:45;13.40;96.60
32322;DHT22;61553;48.994;8.940;2023-03-23T03:37:11;13.30;96.80
32322;DHT22;61553;48.994;8.940;2023-03-23T03:39:38;13.30;96.70
32322;DHT22;61553;48.994;8.940;2023-03-23T03:42:05;13.30;96.60
32322;DHT22;61553;48.994;8.940;2023-03-23T03:44:32;13.40;96.70
32322;DHT22;61553;48.994;8.940;2023-03-23T03:46:58;13.40;96.80
32322;DHT22;61553;48.994;8.940;2023-03-23T03:49:23;13.40;96.70
32322;DHT22;61553;48.994;8.940;2023-03-23T03:51:49;13.40;96.70
32322;DHT22;61553;48.994;8.940;2023-03-23T03:54:15;13.40;96.60
32322;DHT22;61553;48.994;8.940;2023-03-23T03:56:41;13.40;96.60
32322;DHT22;61553;48.994;8.940;2023-03-23T03:59:08;13.40;96.70
32322;DHT22;61553;48.994;8.940;2023-03-23T04:01:36;13.40;96.80
32322;DHT22;61553;48.994;8.940;2023-03-23T04:04:02;13.50;96.80
32322;DHT22;61553;48.994;8.940;2023-03-23T04:06:28;13.50;96.70
32322;DHT22;61553;48.994;8.940;2023-03-23T04:08:57;13.50;96.80
32322;DHT22;61553;48.994;8.940;2023-03-23T04:11:25;13.50;96.90
32322;DHT22;61553;48.994;8.940;2023-03-23T04:13:51;13.50;96.80
32322;DHT22;61553;48.994;8.940;2023-03-23T04:16:17;13.40;96.90
32322;DHT22;61553;48.994;8.940;2023-03-23T04:18:43;13.40;97.00
32322;DHT22;61553;48.994;8.940;2023-03-23T04:21:09;13.50;97.10
32322;DHT22;61553;48.994;8.940;2023-03-23T04:23:35;13.40;97.20
32322;DHT22;61553;48.994;8.940;2023-03-23T04:26:02;13.40;97.40
32322;DHT22;61553;48.994;8.940;2023-03-23T04:28:29;13.40;97.30
32322;DHT22;61553;48.994;8.940;2023-03-23T04:30:59;13.40;97.30
32322;DHT22;61553;48.994;8.940;2023-03-23T04:33:27;13.50;97.10
32322;DHT22;61553;48.994;8.940;2023-03-23T04:35:59;13.50;96.90
32322;DHT22;61553;48.994;8.940;2023-03-23T04:38:26;13.50;97.00
32322;DHT22;61553;48.994;8.940;2023-03-23T04:40:53;13.50;97.10
32322;DHT22;61553;48.994;8.940;2023-03-23T04:43:20;13.50;97.10
32322;DHT22;61553;48.994;8.940;2023-03-23T04:45:47;13.50;96.90
32322;DHT22;61553;48.994;8.940;2023-03-23T04:48:17;13.60;96.80
32322;DHT22;61553;48.994;8.940;2023-03-23T04:50:44;13.60;96.80
32322;DHT22;61553;48.994;8.940;2023-03-23T04:53:09;13.60;96.80
32322;DHT22;61553;48.994;8.940;2023-03-23T04:55:36;13.60;96.70
32322;DHT22;61553;48.994;8.940;2023-03-23T04:58:07;13.70;96.70
32322;DHT22;61553;48.994;8.940;2023-03-23T05:00:36;13.70;96.70
32322;DHT22;61553;48.994;8.940;2023-03-23T05:03:02;13.70;96.70
32322;DHT22;61553;48.994;8.940;2023-03-23T05:05:27;13.70;96.60
32322;DHT22;61553;48.994;8.940;2023-03-23T05:07:56;13.70;96.70
32322;DHT22;61553;48.994;8.940;2023-03-23T05:10:22;13.70;96.60
32322;DHT22;61553;48.994;8.940;2023-03-23T05:12:48;13.80;96.40
32322;DHT22;61553;48.994;8.940;2023-03-23T05:15:15;13.80;96.50
32322;DHT22;61553;48.994;8.940;2023-03-23T05:17:41;13.80;96.50
32322;DHT22;61553;48.994;8.940;2023-03-23T05:20:14;13.80;96.50
32322;DHT22;61553;48.994;8.940;2023-03-23T05:22:43;13.80;96.50
32322;DHT22;61553;48.994;8.940;2023-03-23T05:25:15;13.80;96.40
32322;DHT22;61553;48.994;8.940;2023-03-23T05:27:40;13.80;96.40
32322;DHT22;61553;48.994;8.940;2023-03-23T05:30:15;13.80;96.30
32322;DHT22;61553;48.994;8.940;2023-03-23T05:32:44;13.80;96.20
32322;DHT22;61553;48.994;8.940;2023-03-23T05:35:11;13.80;96.30
32322;DHT22;61553;48.994;8.940;2023-03-23T05:37:38;13.90;96.30
32322;DHT22;61553;48.994;8.940;2023-03-23T05:40:04;13.80;96.30
32322;DHT22;61553;48.994;8.940;2023-03-23T05:42:35;13.80;96.60
32322;DHT22;61553;48.994;8.940;2023-03-23T05:45:02;13.60;97.90
32322;DHT22;61553;48.994;8.940;2023-03-23T05:47:28;13.60;98.20
32322;DHT22;61553;48.994;8.940;2023-03-23T05:49:54;13.50;98.10
32322;DHT22;61553;48.994;8.940;2023-03-23T05:52:20;13.50;98.40
32322;DHT22;61553;48.994;8.940;2023-03-23T05:54:46;13.40;99.40
32322;DHT22;61553;48.994;8.940;2023-03-23T05:57:12;13.40;99.80
32322;DHT22;61553;48.994;8.940;2023-03-23T05:59:38;13.30;98.80
32322;DHT22;61553;48.994;8.940;2023-03-23T06:02:04;13.30;99.70
32322;DHT22;61553;48.994;8.940;2023-03-23T06:04:30;13.40;99.70
32322;DHT22;61553;48.994;8.940;2023-03-23T06:07:00;13.30;99.90
32322;DHT22;61553;48.994;8.940;2023-03-23T06:09:26;13.30;99.90
32322;DHT22;61553;48.994;8.940;2023-03-23T06:11:52;13.20;99.90
32322;DHT22;61553;48.994;8.940;2023-03-23T06:14:17;13.20;99.90
32322;DHT22;61553;48.994;8.940;2023-03-23T06:16:43;13.10;99.90
32322;DHT22;61553;48.994;8.940;2023-03-23T06:19:09;13.10;99.90
32322;DHT22;61553;48.994;8.940;2023-03-23T06:21:35;13.10;99.90
32322;DHT22;61553;48.994;8.940;2023-03-23T06:24:01;13.10;99.90
32322;DHT22;61553;48.994;8.940;2023-03-23T06:26:35;13.10;99.90
32322;DHT22;61553;48.994;8.940;2023-03-23T06:29:02;13.00;99.90
32322;DHT22;61553;48.994;8.940;2023-03-23T06:31:30;13.00;99.90
32322;DHT22;61553;48.994;8.940;2023-03-23T06:33:58;12.90;99.90
32322;DHT22;61553;48.994;8.940;2023-03-23T06:36:24;12.90;99.90
32322;DHT22;61553;48.994;8.940;2023-03-23T06:38:52;13.00;99.90
32322;DHT22;61553;48.994;8.940;2023-03-23T06:41:17;13.00;99.90
32322;DHT22;61553;48.994;8.940;2023-03-23T06:43:43;13.10;99.90
32322;DHT22;61553;48.994;8.940;2023-03-23T06:46:09;13.20;99.90
32322;DHT22;61553;48.994;8.940;2023-03-23T06:48:35;13.30;99.90
32322;DHT22;61553;48.994;8.940;2023-03-23T06:51:00;13.40;99.90
32322;DHT22;61553;48.994;8.940;2023-03-23T06:53:27;13.50;99.90
32322;DHT22;61553;48.994;8.940;2023-03-23T06:55:53;13.60;99.90
32322;DHT22;61553;48.994;8.940;2023-03-23T06:58:19;13.70;99.90
32322;DHT22;61553;48.994;8.940;2023-03-23T07:00:44;13.80;99.90
32322;DHT22;61553;48.994;8.940;2023-03-23T07:03:11;13.80;99.90
32322;DHT22;61553;48.994;8.940;2023-03-23T07:05:36;13.80;99.90
32322;DHT22;61553;48.994;8.940;2023-03-23T07:08:03;13.80;99.90
32322;DHT22;61553;48.994;8.940;2023-03-23T07:10:30;13.90;99.90
32322;DHT22;61553;48.994;8.940;2023-03-23T07:12:55;13.80;99.90
32322;DHT22;61553;48.994;8.940;2023-03-23T07:15:22;13.90;99.90
32322;DHT22;61553;48.994;8.940;2023-03-23T07:17:47;13.80;99.90
32322;DHT22;61553;48.994;8.940;2023-03-23T07:20:13;13.90;99.90
32322;DHT22;61553;48.994;8.940;2023-03-23T07:22:40;13.90;99.90
32322;DHT22;61553;48.994;8.940;2023-03-23T07:25:06;13.90;99.90
32322;DHT22;61553;48.994;8.940;2023-03-23T07:27:33;14.00;99.90
32322;DHT22;61553;48.994;8.940;2023-03-23T07:29:59;14.00;99.90
32322;DHT22;61553;48.994;8.940;2023-03-23T07:32:25;14.00;99.90
32322;DHT22;61553;48.994;8.940;2023-03-23T07:34:51;14.10;99.90
32322;DHT22;61553;48.994;8.940;2023-03-23T07:37:17;14.10;99.90
32322;DHT22;61553;48.994;8.940;2023-03-23T07:39:43;14.10;99.90
32322;DHT22;61553;48.994;8.940;2023-03-23T07:42:09;14.40;99.90
32322;DHT22;61553;48.994;8.940;2023-03-23T07:44:34;14.60;99.90
32322;DHT22;61553;48.994;8.940;2023-03-23T07:47:00;14.90;99.90
32322;DHT22;61553;48.994;8.940;2023-03-23T07:49:26;15.20;99.90
32322;DHT22;61553;48.994;8.940;2023-03-23T07:51:52;15.40;99.90
32322;DHT22;61553;48.994;8.940;2023-03-23T07:54:18;15.60;99.90
32322;DHT22;61553;48.994;8.940;2023-03-23T07:56:44;15.70;99.90
32322;DHT22;61553;48.994;8.940;2023-03-23T07:59:11;15.60;99.90
32322;DHT22;61553;48.994;8.940;2023-03-23T08:01:38;15.60;99.90
32322;DHT22;61553;48.994;8.940;2023-03-23T08:04:04;15.70;99.90
32322;DHT22;61553;48.994;8.940;2023-03-23T08:06:32;15.50;99.90
32322;DHT22;61553;48.994;8.940;2023-03-23T08:08:59;15.20;99.90
32322;DHT22;61553;48.994;8.940;2023-03-23T08:11:25;15.10;99.90
32322;DHT22;61553;48.994;8.940;2023-03-23T08:13:51;15.00;99.90
32322;DHT22;61553;48.994;8.940;2023-03-23T08:16:17;14.90;99.90
32322;DHT22;61553;48.994;8.940;2023-03-23T08:18:44;14.90;99.90
32322;DHT22;61553;48.994;8.940;2023-03-23T08:21:10;14.90;99.90
32322;DHT22;61553;48.994;8.940;2023-03-23T08:23:37;14.60;99.90
32322;DHT22;61553;48.994;8.940;2023-03-23T08:26:04;14.60;99.90
32322;DHT22;61553;48.994;8.940;2023-03-23T08:28:33;14.40;99.90
32322;DHT22;61553;48.994;8.940;2023-03-23T08:30:58;14.30;99.90
32322;DHT22;61553;48.994;8.940;2023-03-23T08:33:24;14.20;99.90
32322;DHT22;61553;48.994;8.940;2023-03-23T08:35:57;14.00;99.90
32322;DHT22;61553;48.994;8.940;2023-03-23T08:38:24;14.00;99.90
32322;DHT22;61553;48.994;8.940;2023-03-23T08:40:50;13.90;99.90
32322;DHT22;61553;48.994;8.940;2023-03-23T08:43:17;13.80;99.90
32322;DHT22;61553;48.994;8.940;2023-03-23T08:45:43;13.70;99.90
32322;DHT22;61553;48.994;8.940;2023-03-23T08:48:09;13.70;99.90
32322;DHT22;61553;48.994;8.940;2023-03-23T08:50:36;13.80;99.90
32322;DHT22;61553;48.994;8.940;2023-03-23T08:53:02;13.80;99.90
32322;DHT22;61553;48.994;8.940;2023-03-23T08:55:29;14.00;99.90
32322;DHT22;61553;48.994;8.940;2023-03-23T08:57:54;14.10;99.90
32322;DHT22;61553;48.994;8.940;2023-03-23T09:00:21;14.30;99.90
32322;DHT22;61553;48.994;8.940;2023-03-23T09:02:51;14.50;99.90
32322;DHT22;61553;48.994;8.940;2023-03-23T09:05:20;14.60;99.90
32322;DHT22;61553;48.994;8.940;2023-03-23T09:07:48;14.80;99.90
32322;DHT22;61553;48.994;8.940;2023-03-23T09:10:15;14.90;99.90
32322;DHT22;61553;48.994;8.940;2023-03-23T09:12:41;15.00;99.90
32322;DHT22;61553;48.994;8.940;2023-03-23T09:15:10;15.00;99.90
32322;DHT22;61553;48.994;8.940;2023-03-23T09:17:42;15.00;99.90
32322;DHT22;61553;48.994;8.940;2023-03-23T09:20:10;15.10;99.90
32322;DHT22;61553;48.994;8.940;2023-03-23T09:22:39;15.00;99.90
32322;DHT22;61553;48.994;8.940;2023-03-23T09:25:06;14.80;99.90
32322;DHT22;61553;48.994;8.940;2023-03-23T09:27:32;14.80;99.90
32322;DHT22;61553;48.994;8.940;2023-03-23T09:29:58;14.60;99.90
32322;DHT22;61553;48.994;8.940;2023-03-23T09:32:24;14.50;99.90
32322;DHT22;61553;48.994;8.940;2023-03-23T09:34:50;14.30;99.90
32322;DHT22;61553;48.994;8.940;2023-03-23T09:37:16;14.30;99.90
32322;DHT22;61553;48.994;8.940;2023-03-23T09:39:42;14.30;99.90
32322;DHT22;61553;48.994;8.940;2023-03-23T09:42:53;14.20;99.90
32322;DHT22;61553;48.994;8.940;2023-03-23T09:51:04;14.30;99.90
32322;DHT22;61553;48.994;8.940;2023-03-23T09:53:38;14.10;99.90
32322;DHT22;61553;48.994;8.940;2023-03-23T09:56:12;14.10;99.90
32322;DHT22;61553;48.994;8.940;2023-03-23T09:58:51;13.90;99.90
32322;DHT22;61553;48.994;8.940;2023-03-23T10:01:39;13.70;99.90
32322;DHT22;61553;48.994;8.940;2023-03-23T10:04:18;13.60;99.90
32322;DHT22;61553;48.994;8.940;2023-03-23T10:06:47;13.70;99.90
32322;DHT22;61553;48.994;8.940;2023-03-23T10:09:16;13.70;99.90
32322;DHT22;61553;48.994;8.940;2023-03-23T10:11:59;13.60;99.90
32322;DHT22;61553;48.994;8.940;2023-03-23T10:17:54;13.50;99.90
32322;DHT22;61553;48.994;8.940;2023-03-23T10:20:41;13.80;99.90
32322;DHT22;61553;48.994;8.940;2023-03-23T10:28:35;15.80;99.90
32322;DHT22;61553;48.994;8.940;2023-03-23T10:31:02;16.80;99.90
32322;DHT22;61553;48.994;8.940;2023-03-23T10:33:45;17.30;99.90
32322;DHT22;61553;48.994;8.940;2023-03-23T10:36:35;17.20;99.90
32322;DHT22;61553;48.994;8.940;2023-03-23T10:39:05;17.40;99.90
32322;DHT22;61553;48.994;8.940;2023-03-23T10:41:32;17.20;99.90
32322;DHT22;61553;48.994;8.940;2023-03-23T10:43:58;17.40;99.90
32322;DHT22;61553;48.994;8.940;2023-03-23T10:49:18;17.60;99.90
32322;DHT22;61553;48.994;8.940;2023-03-23T10:54:37;17.60;99.90
32322;DHT22;61553;48.994;8.940;2023-03-23T10:57:25;17.10;99.90
32322;DHT22;61553;48.994;8.940;2023-03-23T10:59:59;17.00;99.90
32322;DHT22;61553;48.994;8.940;2023-03-23T11:02:25;17.00;99.90
32322;DHT22;61553;48.994;8.940;2023-03-23T11:04:58;16.90;99.90
32322;DHT22;61553;48.994;8.940;2023-03-23T11:07:29;16.80;99.90
32322;DHT22;61553;48.994;8.940;2023-03-23T11:09:59;16.60;99.90
32322;DHT22;61553;48.994;8.940;2023-03-23T11:12:33;16.50;99.90
32322;DHT22;61553;48.994;8.940;2023-03-23T11:17:55;16.30;99.90
32322;DHT22;61553;48.994;8.940;2023-03-23T11:20:22;16.60;99.90
32322;DHT22;61553;48.994;8.940;2023-03-23T11:22:47;16.80;99.90
32322;DHT22;61553;48.994;8.940;2023-03-23T11:25:13;17.00;99.90
32322;DHT22;61553;48.994;8.940;2023-03-23T11:27:40;17.00;99.90
32322;DHT22;61553;48.994;8.940;2023-03-23T11:30:18;17.00;99.90
32322;DHT22;61553;48.994;8.940;2023-03-23T11:32:46;17.10;99.90
32322;DHT22;61553;48.994;8.940;2023-03-23T11:35:31;17.00;99.90
32322;DHT22;61553;48.994;8.940;2023-03-23T11:37:58;16.90;99.90
32322;DHT22;61553;48.994;8.940;2023-03-23T11:40:43;16.70;99.90
32322;DHT22;61553;48.994;8.940;2023-03-23T11:43:19;16.70;99.90
32322;DHT22;61553;48.994;8.940;2023-03-23T11:46:05;16.70;99.90
32322;DHT22;61553;48.994;8.940;2023-03-23T11:51:42;16.80;99.90
32322;DHT22;61553;48.994;8.940;2023-03-23T11:57:11;16.60;99.90
32322;DHT22;61553;48.994;8.940;2023-03-23T11:59:39;16.90;99.90
32322;DHT22;61553;48.994;8.940;2023-03-23T12:10:24;17.20;99.90
32322;DHT22;61553;48.994;8.940;2023-03-23T12:21:55;17.90;99.90
32322;DHT22;61553;48.994;8.940;2023-03-23T12:27:07;17.80;99.90
32322;DHT22;61553;48.994;8.940;2023-03-23T12:29:43;17.70;99.90
32322;DHT22;61553;48.994;8.940;2023-03-23T12:37:42;17.40;99.90
32322;DHT22;61553;48.994;8.940;2023-03-23T12:48:56;17.90;99.90
32322;DHT22;61553;48.994;8.940;2023-03-23T12:51:30;17.90;99.90
32322;DHT22;61553;48.994;8.940;2023-03-23T12:57:18;17.90;99.90
32322;DHT22;61553;48.994;8.940;2023-03-23T12:59:29;17.60;99.90
32322;DHT22;61553;48.994;8.940;2023-03-23T13:05:09;17.40;99.90
32322;DHT22;61553;48.994;8.940;2023-03-23T13:07:45;17.50;99.90
32322;DHT22;61553;48.994;8.940;2023-03-23T13:10:21;17.60;99.90
32322;DHT22;61553;48.994;8.940;2023-03-23T13:12:48;17.60;99.90
32322;DHT22;61553;48.994;8.940;2023-03-23T13:23:15;17.40;99.90
32322;DHT22;61553;48.994;8.940;2023-03-23T13:25:59;17.40;99.90
32322;DHT22;61553;48.994;8.940;2023-03-23T13:29:18;17.40;99.90
32322;DHT22;61553;48.994;8.940;2023-03-23T13:31:29;17.40;99.90
32322;DHT22;61553;48.994;8.940;2023-03-23T13:39:37;17.10;99.90
32322;DHT22;61553;48.994;8.940;2023-03-23T13:52:49;16.90;99.90
32322;DHT22;61553;48.994;8.940;2023-03-23T14:05:42;17.80;99.90
32322;DHT22;61553;48.994;8.940;2023-03-23T14:13:04;18.00;99.90
32322;DHT22;61553;48.994;8.940;2023-03-23T14:15:41;17.90;99.90
32322;DHT22;61553;48.994;8.940;2023-03-23T14:18:13;18.00;99.90
32322;DHT22;61553;48.994;8.940;2023-03-23T14:20:39;18.00;99.90
32322;DHT22;61553;48.994;8.940;2023-03-23T14:23:05;17.80;99.90
32322;DHT22;61553;48.994;8.940;2023-03-23T14:25:32;17.80;99.90
32322;DHT22;61553;48.994;8.940;2023-03-23T14:27:58;17.70;99.90
32322;DHT22;61553;48.994;8.940;2023-03-23T14:30:26;17.50;99.90
32322;DHT22;61553;48.994;8.940;2023-03-23T14:32:54;17.30;99.90
32322;DHT22;61553;48.994;8.940;2023-03-23T14:35:33;17.20;99.90
32322;DHT22;61553;48.994;8.940;2023-03-23T14:38:00;17.10;99.90
32322;DHT22;61553;48.994;8.940;2023-03-23T14:40:28;17.10;99.90
32322;DHT22;61553;48.994;8.940;2023-03-23T14:42:54;17.10;99.90
32322;DHT22;61553;48.994;8.940;2023-03-23T14:45:22;17.10;99.90
32322;DHT22;61553;48.994;8.940;2023-03-23T14:47:49;17.10;99.90
32322;DHT22;61553;48.994;8.940;2023-03-23T14:53:03;16.90;99.90
32322;DHT22;61553;48.994;8.940;2023-03-23T14:55:34;16.80;99.90
32322;DHT22;61553;48.994;8.940;2023-03-23T14:58:08;16.60;99.90
32322;DHT22;61553;48.994;8.940;2023-03-23T15:00:52;16.60;99.90
32322;DHT22;61553;48.994;8.940;2023-03-23T15:03:20;16.60;99.90
32322;DHT22;61553;48.994;8.940;2023-03-23T15:05:51;16.60;99.90
32322;DHT22;61553;48.994;8.940;2023-03-23T15:11:13;16.70;99.90
32322;DHT22;61553;48.994;8.940;2023-03-23T15:13:48;16.70;99.90
32322;DHT22;61553;48.994;8.940;2023-03-23T15:16:19;16.60;99.90
32322;DHT22;61553;48.994;8.940;2023-03-23T15:21:27;16.30;99.90
32322;DHT22;61553;48.994;8.940;2023-03-23T15:23:53;16.30;99.90
32322;DHT22;61553;48.994;8.940;2023-03-23T15:26:25;16.20;99.90
32322;DHT22;61553;48.994;8.940;2023-03-23T15:29:04;16.20;99.90
32322;DHT22;61553;48.994;8.940;2023-03-23T15:31:54;16.10;99.90
32322;DHT22;61553;48.994;8.940;2023-03-23T15:34:36;16.10;99.90
32322;DHT22;61553;48.994;8.940;2023-03-23T15:37:06;16.00;99.90
32322;DHT22;61553;48.994;8.940;2023-03-23T15:39:40;15.90;99.90
32322;DHT22;61553;48.994;8.940;2023-03-23T15:42:07;15.90;99.90
32322;DHT22;61553;48.994;8.940;2023-03-23T15:45:15;15.80;99.90
32322;DHT22;61553;48.994;8.940;2023-03-23T15:50:33;15.70;99.90
32322;DHT22;61553;48.994;8.940;2023-03-23T15:52:59;15.60;99.90
32322;DHT22;61553;48.994;8.940;2023-03-23T15:55:36;15.60;99.90
32322;DHT22;61553;48.994;8.940;2023-03-23T15:58:09;15.60;99.90
32322;DHT22;61553;48.994;8.940;2023-03-23T16:00:36;15.60;99.90
32322;DHT22;61553;48.994;8.940;2023-03-23T16:03:05;15.50;99.90
32322;DHT22;61553;48.994;8.940;2023-03-23T16:05:31;15.50;99.90
32322;DHT22;61553;48.994;8.940;2023-03-23T16:07:57;15.40;99.90
32322;DHT22;61553;48.994;8.940;2023-03-23T16:10:25;15.50;99.90
32322;DHT22;61553;48.994;8.940;2023-03-23T16:12:51;15.50;99.90
32322;DHT22;61553;48.994;8.940;2023-03-23T16:15:17;15.50;99.90
32322;DHT22;61553;48.994;8.940;2023-03-23T16:17:44;15.50;99.90
32322;DHT22;61553;48.994;8.940;2023-03-23T16:20:18;15.50;99.90
32322;DHT22;61553;48.994;8.940;2023-03-23T16:22:44;15.40;99.90
32322;DHT22;61553;48.994;8.940;2023-03-23T16:25:11;15.50;99.90
32322;DHT22;61553;48.994;8.940;2023-03-23T16:27:38;15.50;99.90
32322;DHT22;61553;48.994;8.940;2023-03-23T16:30:17;15.50;99.90
32322;DHT22;61553;48.994;8.940;2023-03-23T16:32:43;15.60;99.90
32322;DHT22;61553;48.994;8.940;2023-03-23T16:35:09;15.60;99.90
32322;DHT22;61553;48.994;8.940;2023-03-23T16:37:35;15.70;99.90
32322;DHT22;61553;48.994;8.940;2023-03-23T16:40:02;15.70;99.90
32322;DHT22;61553;48.994;8.940;2023-03-23T16:42:28;15.70;99.90
32322;DHT22;61553;48.994;8.940;2023-03-23T16:44:54;15.60;99.90
32322;DHT22;61553;48.994;8.940;2023-03-23T16:47:20;15.60;99.90
32322;DHT22;61553;48.994;8.940;2023-03-23T16:49:50;15.50;99.90
32322;DHT22;61553;48.994;8.940;2023-03-23T16:52:16;15.50;99.90
32322;DHT22;61553;48.994;8.940;2023-03-23T16:54:42;15.50;99.90
32322;DHT22;61553;48.994;8.940;2023-03-23T16:57:08;15.40;99.90
32322;DHT22;61553;48.994;8.940;2023-03-23T16:59:33;15.30;99.90
32322;DHT22;61553;48.994;8.940;2023-03-23T17:01:59;15.30;99.90
32322;DHT22;61553;48.994;8.940;2023-03-23T17:04:29;15.20;99.90
32322;DHT22;61553;48.994;8.940;2023-03-23T17:06:55;15.00;99.90
32322;DHT22;61553;48.994;8.940;2023-03-23T17:09:26;14.90;99.90
32322;DHT22;61553;48.994;8.940;2023-03-23T17:11:52;14.80;99.90
32322;DHT22;61553;48.994;8.940;2023-03-23T17:14:18;14.80;99.90
32322;DHT22;61553;48.994;8.940;2023-03-23T17:16:44;14.70;99.90
32322;DHT22;61553;48.994;8.940;2023-03-23T17:19:10;14.70;99.90
32322;DHT22;61553;48.994;8.940;2023-03-23T17:21:35;14.70;99.90
32322;DHT22;61553;48.994;8.940;2023-03-23T17:24:02;14.60;99.90
32322;DHT22;61553;48.994;8.940;2023-03-23T17:26:28;14.50;99.90
32322;DHT22;61553;48.994;8.940;2023-03-23T17:28:53;14.40;99.90
32322;DHT22;61553;48.994;8.940;2023-03-23T17:31:19;14.40;99.90
32322;DHT22;61553;48.994;8.940;2023-03-23T17:33:44;14.20;99.90
32322;DHT22;61553;48.994;8.940;2023-03-23T17:36:10;14.10;99.90
32322;DHT22;61553;48.994;8.940;2023-03-23T17:38:36;14.10;99.90
32322;DHT22;61553;48.994;8.940;2023-03-23T17:41:01;14.00;99.90
32322;DHT22;61553;48.994;8.940;2023-03-23T17:43:30;13.90;99.90
32322;DHT22;61553;48.994;8.940;2023-03-23T17:45:56;13.80;99.90
32322;DHT22;61553;48.994;8.940;2023-03-23T17:48:21;13.70;99.90
32322;DHT22;61553;48.994;8.940;2023-03-23T17:50:48;13.70;99.90
32322;DHT22;61553;48.994;8.940;2023-03-23T17:53:14;13.60;99.90
32322;DHT22;61553;48.994;8.940;2023-03-23T17:55:40;13.60;99.90
32322;DHT22;61553;48.994;8.940;2023-03-23T17:58:08;13.50;99.90
32322;DHT22;61553;48.994;8.940;2023-03-23T18:00:34;13.50;99.90
32322;DHT22;61553;48.994;8.940;2023-03-23T18:03:00;13.50;99.90
32322;DHT22;61553;48.994;8.940;2023-03-23T18:05:26;13.50;99.90